Аэропорт: Ширак. Гюмри

ICAO: UDSG

METAR:
2021-10-23 02:30:00
UDSG 230230Z 05002KT 9999 NSC M04/M07 Q1023 RMK R02/CLRD70 NOSIG
METAR:
2021-10-22 23:01:00
TAF UDSG 222301Z 2300/2324 VRB04KT 9999 NSC TEMPO 2300/2306 5000 BR